Terminal Aerodrome Forecast
Issued by NWS Cleveland, OH

Home | Current Version | Previous Version | Graphics & Text | Print | Product List | Glossary On
Versions: 1 2 3 4 5 6 7 8 9 10 11 12 13 14 15 16 17
000
FTUS41 KCLE 182334
TAFTOL
TAF
KTOL 182334Z 1900/1924 33015G25KT 6SM -SHRA OVC007
     FM190300 31020G35KT 6SM -SHRA OVC010
     FM190500 31020G38KT P6SM OVC025
     FM191000 30020G30KT P6SM OVC035
     FM191500 27015G25KT P6SM BKN050=

USA.gov is the U.S. government's official web portal to all federal, state and local government web resources and services.